createdAt,value
2018-12-24T00:00:50.140Z,3.70
2018-12-24T00:03:18.668Z,3.70
2018-12-24T00:05:47.164Z,3.70
2018-12-24T00:08:16.175Z,3.50
2018-12-24T00:10:44.704Z,3.70
2018-12-24T00:13:13.392Z,3.60
2018-12-24T00:15:41.883Z,3.60
2018-12-24T00:18:10.475Z,3.60
2018-12-24T00:20:39.396Z,3.60
2018-12-24T00:23:08.000Z,3.60
2018-12-24T00:25:36.712Z,3.60
2018-12-24T00:28:05.455Z,3.50
2018-12-24T00:30:34.021Z,3.60
2018-12-24T00:33:03.291Z,3.60
2018-12-24T00:35:31.875Z,3.60
2018-12-24T00:38:00.731Z,3.60
2018-12-24T00:40:29.334Z,3.50
2018-12-24T00:42:58.170Z,3.50
2018-12-24T00:45:26.832Z,3.50
2018-12-24T00:47:55.454Z,3.50
2018-12-24T00:50:23.935Z,3.60
2018-12-24T00:52:52.427Z,3.40
2018-12-24T00:55:21.148Z,3.40
2018-12-24T00:57:49.641Z,3.40
2018-12-24T01:00:18.141Z,3.30
2018-12-24T01:02:46.866Z,3.40
2018-12-24T01:07:43.756Z,3.30
2018-12-24T01:10:12.997Z,3.30
2018-12-24T01:12:41.484Z,3.40
2018-12-24T01:15:10.151Z,3.40
2018-12-24T01:20:07.768Z,3.40
2018-12-24T01:22:36.527Z,3.50
2018-12-24T01:25:05.076Z,3.40
2018-12-24T01:27:33.572Z,3.40
2018-12-24T01:30:02.073Z,3.40
2018-12-24T01:32:31.141Z,3.30
2018-12-24T01:34:59.809Z,3.40
2018-12-24T01:37:28.837Z,3.40
2018-12-24T01:39:57.526Z,3.30
2018-12-24T01:42:33.360Z,3.40
2018-12-24T01:44:56.615Z,3.40
2018-12-24T01:49:53.840Z,3.40
2018-12-24T01:52:22.566Z,3.50
2018-12-24T01:57:19.759Z,3.40
2018-12-24T01:59:48.250Z,3.40
2018-12-24T02:02:16.785Z,3.40
2018-12-24T02:04:45.312Z,3.50
2018-12-24T02:07:14.173Z,3.40
2018-12-24T02:09:42.831Z,3.30
2018-12-24T02:12:11.316Z,3.30
2018-12-24T02:14:40.388Z,3.20
2018-12-24T02:17:08.932Z,3.20
2018-12-24T02:19:37.428Z,3.30
2018-12-24T02:22:12.776Z,3.20
2018-12-24T02:24:36.539Z,3.20
2018-12-24T02:27:05.492Z,3.20
2018-12-24T02:29:34.297Z,3.20
2018-12-24T02:34:31.409Z,3.40
2018-12-24T02:36:59.901Z,3.20
2018-12-24T02:39:28.578Z,3.20
2018-12-24T02:41:57.225Z,3.20
2018-12-24T02:44:25.734Z,3.20
2018-12-24T02:46:54.441Z,3.10
2018-12-24T02:49:23.075Z,3.10
2018-12-24T02:51:51.838Z,3.10
2018-12-24T02:54:20.368Z,3.20
2018-12-24T02:56:48.951Z,3.20
2018-12-24T02:59:17.445Z,3.10
2018-12-24T03:01:46.368Z,3.10
2018-12-24T03:04:15.622Z,3.20
2018-12-24T03:06:44.390Z,3.20
2018-12-24T03:09:13.360Z,3.20
2018-12-24T03:11:42.039Z,3.20
2018-12-24T03:14:11.299Z,3.10
2018-12-24T03:16:40.315Z,3.10
2018-12-24T03:19:08.805Z,3.10
2018-12-24T03:21:37.532Z,3.00
2018-12-24T03:24:06.053Z,3.00
2018-12-24T03:26:35.036Z,3.10
2018-12-24T03:29:03.651Z,3.00
2018-12-24T03:31:32.993Z,2.90
2018-12-24T03:34:01.483Z,2.90
2018-12-24T03:36:30.166Z,2.90
2018-12-24T03:38:59.231Z,2.90
2018-12-24T03:41:27.725Z,2.90
2018-12-24T03:43:56.488Z,2.90
2018-12-24T03:46:25.823Z,2.90
2018-12-24T03:48:54.550Z,2.90
2018-12-24T03:51:23.294Z,3.00
2018-12-24T03:53:52.041Z,2.90
2018-12-24T03:56:20.548Z,2.90
2018-12-24T03:58:49.148Z,2.80
2018-12-24T04:01:17.884Z,2.80
2018-12-24T04:03:46.544Z,2.90
2018-12-24T04:06:15.154Z,2.90
2018-12-24T04:08:43.855Z,2.90
2018-12-24T04:11:12.413Z,2.90
2018-12-24T04:13:40.959Z,2.90
2018-12-24T04:16:10.112Z,2.90
2018-12-24T04:18:39.032Z,2.90
2018-12-24T04:21:07.843Z,2.90
2018-12-24T04:23:36.847Z,2.90
2018-12-24T04:26:05.627Z,2.80
2018-12-24T04:29:19.864Z,2.90
2018-12-24T04:31:48.249Z,2.90
2018-12-24T04:34:17.207Z,2.80
2018-12-24T04:36:45.883Z,2.70
2018-12-24T04:39:14.267Z,2.70
2018-12-24T04:41:42.891Z,2.70
2018-12-24T04:44:11.738Z,2.70
2018-12-24T04:46:40.355Z,2.70
2018-12-24T04:49:08.786Z,2.70
2018-12-24T04:51:37.866Z,2.70
2018-12-24T04:54:06.609Z,2.70
2018-12-24T04:56:35.199Z,2.80
2018-12-24T04:59:04.827Z,2.80
2018-12-24T05:01:33.218Z,2.70
2018-12-24T05:04:01.876Z,2.70
2018-12-24T05:06:30.823Z,2.70
2018-12-24T05:08:59.207Z,2.70
2018-12-24T05:11:28.060Z,2.90
2018-12-24T05:13:56.643Z,2.80
2018-12-24T05:16:25.386Z,2.70
2018-12-24T05:18:53.770Z,2.70
2018-12-24T05:21:22.482Z,2.60
2018-12-24T05:23:50.875Z,2.70
2018-12-24T05:26:19.435Z,2.60
2018-12-24T05:28:47.882Z,2.70
2018-12-24T06:25:39.547Z,2.50
2018-12-24T06:28:08.089Z,2.50
2018-12-24T06:30:36.707Z,2.40
2018-12-24T06:33:05.108Z,2.30
2018-12-24T06:35:33.551Z,2.50
2018-12-24T06:38:02.418Z,2.40
2018-12-24T06:50:27.777Z,2.40
2018-12-24T06:52:56.436Z,2.20
2018-12-24T06:55:25.173Z,2.20
2018-12-24T06:57:54.387Z,2.30
2018-12-24T07:00:22.933Z,2.30
2018-12-24T07:30:02.786Z,1.60
2018-12-24T07:32:31.279Z,1.60
2018-12-24T07:35:00.040Z,1.70
2018-12-24T07:37:28.597Z,1.70
2018-12-24T07:39:57.060Z,1.70
2018-12-24T07:42:25.648Z,1.70
2018-12-24T07:44:54.218Z,1.80
2018-12-24T07:47:22.657Z,1.60
2018-12-24T07:49:51.261Z,1.60
2018-12-24T07:52:20.762Z,1.60
2018-12-24T07:54:49.143Z,1.80
2018-12-24T07:57:18.852Z,1.70
2018-12-24T07:59:47.421Z,1.70
2018-12-24T08:02:15.816Z,2.00
2018-12-24T08:04:44.236Z,2.10
2018-12-24T08:07:12.825Z,2.20
2018-12-24T08:09:41.553Z,2.30
2018-12-24T08:12:10.235Z,2.40
2018-12-24T08:14:38.921Z,2.50
2018-12-24T09:01:40.020Z,2.30
2018-12-24T09:04:08.524Z,2.30
2018-12-24T09:11:34.621Z,2.00
2018-12-24T09:14:03.338Z,2.00
2018-12-24T09:41:19.605Z,1.30
2018-12-24T09:51:13.732Z,1.20
2018-12-24T09:58:40.964Z,1.00
2018-12-24T10:01:09.756Z,1.00
2018-12-24T10:03:38.739Z,0.90
2018-12-24T10:06:07.860Z,0.80
2018-12-24T10:08:36.436Z,0.80
2018-12-24T10:11:05.197Z,0.80
2018-12-24T10:13:34.428Z,0.70
2018-12-24T10:16:03.494Z,0.70
2018-12-24T10:18:32.480Z,0.70
2018-12-24T10:21:00.886Z,0.70
2018-12-24T10:23:29.422Z,0.70
2018-12-24T10:25:58.563Z,0.70
2018-12-24T10:28:32.240Z,0.70
2018-12-24T10:33:30.792Z,1.30
2018-12-24T10:36:00.440Z,0.70
2018-12-24T10:38:30.286Z,0.70
2018-12-24T10:41:01.810Z,0.70
2018-12-24T10:43:30.745Z,0.70
2018-12-24T10:46:01.036Z,0.60
2018-12-24T10:48:31.249Z,0.60
2018-12-24T10:50:59.808Z,0.60
2018-12-24T10:53:29.597Z,0.60
2018-12-24T10:55:58.946Z,0.60
2018-12-24T10:58:33.455Z,0.60
2018-12-24T11:08:37.955Z,0.50
2018-12-24T11:13:39.722Z,0.50
2018-12-24T11:16:11.333Z,0.50
2018-12-24T11:18:39.687Z,0.50
2018-12-24T11:21:12.268Z,0.50
2018-12-24T11:23:42.873Z,0.50
2018-12-24T11:26:12.945Z,0.50
2018-12-24T11:28:44.867Z,0.50
2018-12-24T11:31:14.373Z,0.50
2018-12-24T11:33:48.194Z,0.50
2018-12-24T11:36:20.679Z,0.50
2018-12-24T11:38:49.099Z,0.40
2018-12-24T11:41:21.278Z,0.50
2018-12-24T11:43:50.806Z,0.40
2018-12-24T11:46:33.539Z,0.40
2018-12-24T11:49:05.440Z,0.40
2018-12-24T11:51:37.668Z,0.30
2018-12-24T11:54:06.328Z,0.30
2018-12-24T11:56:39.285Z,0.30
2018-12-24T11:59:19.260Z,0.20
2018-12-24T12:01:49.268Z,0.20
2018-12-24T12:04:22.752Z,0.20
2018-12-24T12:06:57.667Z,0.20
2018-12-24T12:09:30.290Z,0.20
2018-12-24T12:12:03.291Z,0.20
2018-12-24T12:14:38.491Z,0.10
2018-12-24T12:17:13.753Z,0.20
2018-12-24T12:19:46.002Z,0.10
2018-12-24T12:22:14.409Z,0.10
2018-12-24T12:24:43.061Z,0.10
2018-12-24T12:27:11.984Z,0.10
2018-12-24T12:29:41.991Z,0.00
2018-12-24T12:32:10.894Z,0.00
2018-12-24T12:34:39.827Z,0.10
2018-12-24T12:37:08.662Z,0.00
2018-12-24T12:39:37.351Z,0.00
2018-12-24T12:42:06.020Z,0.00
2018-12-24T12:44:36.018Z,0.10
2018-12-24T12:47:05.556Z,0.00
2018-12-24T12:49:34.250Z,0.00
2018-12-24T12:52:04.163Z,-0.10
2018-12-24T12:54:32.943Z,0.00
2018-12-24T12:57:01.983Z,-0.10
2018-12-24T12:59:31.240Z,-0.20
2018-12-24T13:02:01.207Z,-0.20
2018-12-24T13:04:31.474Z,-0.20
2018-12-24T13:07:00.887Z,-0.20
2018-12-24T13:09:30.264Z,-0.10
2018-12-24T13:11:59.795Z,-0.20
2018-12-24T13:14:28.570Z,-0.10
2018-12-24T13:16:57.180Z,-0.10
2018-12-24T13:19:26.456Z,-0.20
2018-12-24T13:22:04.145Z,-0.20
2018-12-24T13:24:27.582Z,-0.20
2018-12-24T13:27:02.280Z,-0.30
2018-12-24T13:29:32.564Z,-0.30
2018-12-24T13:32:01.684Z,-0.30
2018-12-24T13:34:30.303Z,-0.30
2018-12-24T13:36:59.890Z,-0.20
2018-12-24T13:39:28.775Z,-0.20
2018-12-24T13:41:57.742Z,-0.20
2018-12-24T13:44:28.782Z,-0.10
2018-12-24T13:46:57.506Z,-0.20
2018-12-24T13:49:27.317Z,-0.20
2018-12-24T13:51:55.991Z,-0.10
2018-12-24T13:54:25.135Z,-0.10
2018-12-24T13:56:53.873Z,-0.20
2018-12-24T13:59:26.664Z,-0.40
2018-12-24T14:01:59.766Z,-0.40
2018-12-24T14:04:26.634Z,-0.40
2018-12-24T14:06:57.211Z,-0.50
2018-12-24T14:09:28.564Z,-0.40
2018-12-24T14:11:57.439Z,-0.40
2018-12-24T14:14:29.250Z,-0.50
2018-12-24T14:17:00.813Z,-0.20
2018-12-24T14:19:29.322Z,-0.40
2018-12-24T14:21:57.810Z,-0.50
2018-12-24T14:24:26.538Z,-0.50
2018-12-24T14:26:55.389Z,-0.50
2018-12-24T14:29:25.180Z,-0.50
2018-12-24T14:31:57.865Z,-0.60
2018-12-24T14:34:26.953Z,-0.60
2018-12-24T14:36:56.300Z,-0.50
2018-12-24T14:39:25.641Z,-0.60
2018-12-24T14:41:55.087Z,-0.60
2018-12-24T14:44:24.254Z,-0.60
2018-12-24T14:46:55.238Z,-0.60
2018-12-24T14:49:23.692Z,-0.50
2018-12-24T14:51:52.379Z,-0.60
2018-12-24T14:54:20.938Z,-0.60
2018-12-24T14:56:49.463Z,-0.60
2018-12-24T14:59:19.379Z,-0.60
2018-12-24T15:01:48.704Z,-0.70
2018-12-24T15:04:17.149Z,-0.60
2018-12-24T15:06:45.633Z,-0.60
2018-12-24T15:09:14.271Z,-0.60
2018-12-24T15:11:43.489Z,-0.60
2018-12-24T15:14:11.882Z,-0.60
2018-12-24T15:16:40.581Z,-0.60
2018-12-24T15:19:09.017Z,-0.60
2018-12-24T15:21:37.423Z,-0.60
2018-12-24T15:24:06.482Z,-0.60
2018-12-24T15:26:35.063Z,-0.70
2018-12-24T15:29:03.601Z,-0.70
2018-12-24T15:31:32.255Z,-0.70
2018-12-24T15:34:01.424Z,-0.60
2018-12-24T15:36:32.208Z,-0.60
2018-12-24T15:39:00.852Z,-0.60
2018-12-24T15:41:29.301Z,-0.70
2018-12-24T15:43:57.748Z,-0.70
2018-12-24T15:46:26.146Z,-0.70
2018-12-24T15:48:54.867Z,-0.70
2018-12-24T15:51:23.439Z,-0.70
2018-12-24T15:53:52.064Z,-0.70
2018-12-24T15:56:20.740Z,-0.70
2018-12-24T15:58:49.453Z,-0.70
2018-12-24T16:01:17.812Z,-0.70
2018-12-24T16:03:46.247Z,-0.80
2018-12-24T16:06:14.711Z,-0.70
2018-12-24T16:08:43.423Z,-0.80
2018-12-24T16:11:11.990Z,-0.80
2018-12-24T16:13:40.456Z,-0.80
2018-12-24T16:16:08.918Z,-0.80
2018-12-24T16:18:37.343Z,-0.80
2018-12-24T16:21:05.973Z,-0.80
2018-12-24T16:23:34.541Z,-0.90
2018-12-24T16:26:03.136Z,-0.80
2018-12-24T16:28:31.789Z,-0.90
2018-12-24T16:31:00.762Z,-0.90
2018-12-24T16:33:30.669Z,-0.80
2018-12-24T16:35:59.725Z,-0.80
2018-12-24T16:38:28.725Z,-0.80
2018-12-24T16:40:57.497Z,-0.90
2018-12-24T16:43:26.439Z,-0.80
2018-12-24T16:45:55.342Z,-0.90
2018-12-24T16:48:23.964Z,-0.80
2018-12-24T16:50:52.646Z,-0.80
2018-12-24T16:53:23.178Z,-0.90
2018-12-24T16:55:52.271Z,-0.90
2018-12-24T16:58:21.148Z,-0.90
2018-12-24T17:00:50.064Z,-0.90
2018-12-24T17:03:19.079Z,-0.90
2018-12-24T17:05:48.034Z,-0.90
2018-12-24T17:08:16.401Z,-0.80
2018-12-24T17:10:45.816Z,-0.90
2018-12-24T17:13:14.322Z,-0.90
2018-12-24T17:15:42.743Z,-0.80
2018-12-24T17:18:11.221Z,-0.90
2018-12-24T17:20:39.782Z,-1.00
2018-12-24T17:23:08.259Z,-0.90
2018-12-24T17:25:36.752Z,-0.90
2018-12-24T17:28:05.337Z,-0.90
2018-12-24T17:30:33.976Z,-1.00
2018-12-24T17:33:02.481Z,-1.00
2018-12-24T17:35:30.871Z,-1.00
2018-12-24T17:37:59.578Z,-1.00
2018-12-24T17:40:28.020Z,-1.00
2018-12-24T17:42:56.634Z,-1.00
2018-12-24T17:45:25.041Z,-1.00
2018-12-24T17:47:53.680Z,-1.00
2018-12-24T17:50:22.146Z,-1.00
2018-12-24T17:52:50.932Z,-1.10
2018-12-24T17:55:19.623Z,-1.10
2018-12-24T17:57:48.016Z,-1.10
2018-12-24T18:00:16.685Z,-1.20
2018-12-24T18:02:45.123Z,-1.10
2018-12-24T18:05:13.580Z,-1.20
2018-12-24T18:07:42.339Z,-1.10
2018-12-24T18:10:11.117Z,-1.10
2018-12-24T18:12:39.500Z,-1.10
2018-12-24T18:15:08.077Z,-1.10
2018-12-24T18:17:38.903Z,-1.10
2018-12-24T18:20:07.203Z,-1.10
2018-12-24T18:22:36.484Z,-1.10
2018-12-24T18:25:05.304Z,-1.20
2018-12-24T18:27:33.811Z,-1.10
2018-12-24T18:30:02.566Z,-1.10
2018-12-24T18:32:31.365Z,-1.10
2018-12-24T18:35:00.250Z,-1.10
2018-12-24T18:37:28.979Z,-1.10
2018-12-24T18:39:57.511Z,-1.20
2018-12-24T18:42:26.369Z,-1.10
2018-12-24T18:44:54.771Z,-1.10
2018-12-24T18:47:23.204Z,-1.20
2018-12-24T18:49:51.830Z,-1.20
2018-12-24T18:52:20.321Z,-1.20
2018-12-24T18:54:48.877Z,-1.20
2018-12-24T18:57:17.779Z,-1.10
2018-12-24T18:59:46.248Z,-1.20
2018-12-24T19:02:15.164Z,-1.20
2018-12-24T19:04:43.567Z,-1.20
2018-12-24T19:07:11.963Z,-1.30
2018-12-24T19:09:40.405Z,-1.20
2018-12-24T19:12:08.800Z,-1.20
2018-12-24T19:14:37.649Z,-1.20
2018-12-24T19:17:06.578Z,-1.30
2018-12-24T19:19:35.513Z,-1.20
2018-12-24T19:22:04.804Z,-1.30
2018-12-24T19:24:33.225Z,-1.30
2018-12-24T19:27:01.892Z,-1.20
2018-12-24T19:29:30.492Z,-1.20
2018-12-24T19:31:58.997Z,-1.30
2018-12-24T19:34:27.343Z,-1.30
2018-12-24T19:36:55.866Z,-1.30
2018-12-24T19:39:25.043Z,-1.30
2018-12-24T19:41:53.431Z,-1.20
2018-12-24T19:44:21.838Z,-1.20
2018-12-24T19:46:50.268Z,-1.20
2018-12-24T19:49:19.248Z,-1.20
2018-12-24T19:51:48.339Z,-1.20
2018-12-24T19:54:17.753Z,-1.10
2018-12-24T19:56:46.401Z,-1.20
2018-12-24T19:59:14.811Z,-1.20
2018-12-24T20:01:43.733Z,-1.20
2018-12-24T20:04:12.588Z,-1.20
2018-12-24T20:06:41.059Z,-1.20
2018-12-24T20:09:12.708Z,-1.20
2018-12-24T20:11:42.056Z,-1.30
2018-12-24T20:14:11.998Z,-1.20
2018-12-24T20:16:40.454Z,-1.30
2018-12-24T20:19:10.433Z,-1.30
2018-12-24T20:21:40.228Z,-1.30
2018-12-24T20:24:08.913Z,-1.30
2018-12-24T20:26:37.991Z,-1.30
2018-12-24T20:29:06.848Z,-1.30
2018-12-24T20:31:36.330Z,-1.40
2018-12-24T20:34:05.286Z,-1.40
2018-12-24T20:36:33.820Z,-1.50
2018-12-24T20:39:02.352Z,-1.50
2018-12-24T20:41:30.942Z,-1.50
2018-12-24T20:43:59.661Z,-1.50
2018-12-24T20:46:28.099Z,-1.50
2018-12-24T20:48:56.504Z,-1.50
2018-12-24T20:51:24.898Z,-1.40
2018-12-24T20:53:53.625Z,-1.50
2018-12-24T20:56:22.015Z,-1.40
2018-12-24T20:58:50.413Z,-1.50
2018-12-24T21:01:19.210Z,-1.30
2018-12-24T21:03:47.616Z,-1.40
2018-12-24T21:06:16.054Z,-1.40
2018-12-24T21:08:45.160Z,-1.40
2018-12-24T21:11:13.820Z,-1.30
2018-12-24T21:13:42.368Z,-1.30
2018-12-24T21:16:10.802Z,-1.30
2018-12-24T21:18:41.482Z,-1.20
2018-12-24T21:21:09.931Z,-1.30
2018-12-24T21:23:38.348Z,-1.40
2018-12-24T21:26:07.189Z,-1.40
2018-12-24T21:28:36.014Z,-1.40
2018-12-24T21:31:04.579Z,-1.30
2018-12-24T21:33:33.131Z,-1.40
2018-12-24T21:36:01.910Z,-1.40
2018-12-24T21:38:30.347Z,-1.50
2018-12-24T21:40:58.762Z,-1.40
2018-12-24T21:43:27.293Z,-1.40
2018-12-24T21:45:55.874Z,-1.40
2018-12-24T21:48:24.530Z,-1.50
2018-12-24T21:50:53.239Z,-1.50
2018-12-24T21:53:22.256Z,-1.50
2018-12-24T21:55:52.790Z,-1.50
2018-12-24T21:58:21.433Z,-1.50
2018-12-24T22:00:50.735Z,-1.60
2018-12-24T22:03:19.680Z,-1.50
2018-12-24T22:05:48.517Z,-1.60
2018-12-24T22:08:16.940Z,-1.60
2018-12-24T22:10:48.797Z,-1.60
2018-12-24T22:13:19.403Z,-1.60
2018-12-24T22:15:48.192Z,-1.60
2018-12-24T22:18:16.932Z,-1.60
2018-12-24T22:20:45.736Z,-1.60
2018-12-24T22:23:14.285Z,-1.60
2018-12-24T22:25:43.160Z,-1.60
2018-12-24T22:28:11.638Z,-1.60
2018-12-24T22:30:40.332Z,-1.60
2018-12-24T22:33:09.132Z,-1.60
2018-12-24T22:35:37.557Z,-1.60
2018-12-24T22:38:06.153Z,-1.60
2018-12-24T22:40:34.940Z,-1.60
2018-12-24T22:43:03.696Z,-1.60
2018-12-24T22:45:32.595Z,-1.60
2018-12-24T22:48:01.063Z,-1.70
2018-12-24T22:50:29.566Z,-1.60
2018-12-24T22:52:58.328Z,-1.60
2018-12-24T22:55:26.982Z,-1.70
2018-12-24T22:57:55.847Z,-1.70
2018-12-24T23:00:26.032Z,-1.70
2018-12-24T23:02:54.605Z,-1.70
2018-12-24T23:05:23.018Z,-1.70
2018-12-24T23:07:51.816Z,-1.70
2018-12-24T23:10:20.344Z,-1.70
2018-12-24T23:12:48.877Z,-1.70
2018-12-24T23:15:17.697Z,-1.80
2018-12-24T23:17:46.509Z,-1.80
2018-12-24T23:20:15.017Z,-1.80
2018-12-24T23:22:43.655Z,-1.80
2018-12-24T23:25:12.202Z,-1.80
2018-12-24T23:27:40.602Z,-1.70
2018-12-24T23:30:09.390Z,-1.70
2018-12-24T23:32:37.772Z,-1.80
2018-12-24T23:35:06.909Z,-1.70
2018-12-24T23:37:35.793Z,-1.70
2018-12-24T23:40:04.184Z,-1.80
2018-12-24T23:42:32.806Z,-1.80
2018-12-24T23:45:01.230Z,-1.90
2018-12-24T23:47:29.634Z,-1.90
2018-12-24T23:49:58.364Z,-1.80
2018-12-24T23:52:27.223Z,-1.90
2018-12-24T23:54:55.780Z,-1.90
2018-12-24T23:57:24.649Z,-1.80
2018-12-24T23:59:53.377Z,-1.90
